Time,TemperatureF,DewpointF,PressureIn,WindDirection,WindDirectionDegrees,WindSpeedMPH,WindSpeedGustMPH,Humidity,HourlyPrecipIn,Conditions,Clouds,dailyrainin,SolarRadiationWatts/m^2,SoftwareType,DateUTC
2013-05-19 00:22:00,54.0,54.0,-100.00,East,100,2.0,4.0,99,0.00,,,0.02,0.000000,,2013-05-19 10:22:00,
2013-05-19 00:32:00,54.0,54.0,-100.00,East,100,2.0,4.0,99,0.00,,,0.02,0.000000,,2013-05-19 10:32:00,
2013-05-19 00:42:00,54.0,54.0,-100.00,East,100,2.0,4.0,99,0.00,,,0.02,0.000000,,2013-05-19 10:42:00,
2013-05-19 00:52:00,54.0,54.0,-100.00,East,100,2.0,4.0,99,0.00,,,0.02,0.000000,,2013-05-19 10:52:00,
2013-05-19 01:21:00,55.0,55.0,-100.00,SSE,162,1.0,5.0,100,0.00,,,0.02,0.000000,,2013-05-19 11:21:00,
2013-05-19 01:32:00,55.0,55.0,-100.00,SSE,162,1.0,5.0,100,0.00,,,0.02,0.000000,,2013-05-19 11:32:00,
2013-05-19 01:42:00,55.0,55.0,-100.00,SSE,162,1.0,5.0,100,0.00,,,0.02,0.000000,,2013-05-19 11:42:00,
2013-05-19 01:52:00,55.0,55.0,-100.00,SSE,162,1.0,5.0,100,0.00,,,0.02,0.000000,,2013-05-19 11:52:00,
2013-05-19 02:21:00,54.0,53.0,-100.00,SE,134,3.0,5.0,98,0.00,,,0.02,0.000000,,2013-05-19 12:21:00,
2013-05-19 02:31:00,54.0,53.0,-100.00,SE,134,3.0,5.0,98,0.00,,,0.02,0.000000,,2013-05-19 12:31:00,
2013-05-19 02:41:00,54.0,53.0,-100.00,SE,134,3.0,5.0,98,0.00,,,0.02,0.000000,,2013-05-19 12:41:00,
2013-05-19 02:52:00,54.0,53.0,-100.00,SE,134,3.0,5.0,98,0.00,,,0.02,0.000000,,2013-05-19 12:52:00,
2013-05-19 03:21:00,53.0,52.0,-100.00,SSE,158,2.0,4.0,97,0.00,,,0.02,0.000000,,2013-05-19 13:21:00,
2013-05-19 03:32:00,53.0,52.0,-100.00,SSE,158,2.0,4.0,97,0.00,,,0.02,0.000000,,2013-05-19 13:32:00,
2013-05-19 03:42:00,53.0,52.0,-100.00,SSE,158,2.0,4.0,97,0.00,,,0.02,0.000000,,2013-05-19 13:42:00,
2013-05-19 03:52:00,53.0,52.0,-100.00,SSE,158,2.0,4.0,97,0.00,,,0.02,0.000000,,2013-05-19 13:52:00,
2013-05-19 04:21:00,55.0,53.0,-100.00,South,174,6.0,9.0,93,0.00,,,0.02,0.000000,,2013-05-19 14:21:00,
2013-05-19 04:32:00,55.0,53.0,-100.00,South,174,6.0,9.0,93,0.00,,,0.02,0.000000,,2013-05-19 14:32:00,
2013-05-19 04:41:00,55.0,53.0,-100.00,South,174,6.0,9.0,93,0.00,,,0.02,0.000000,,2013-05-19 14:41:00,
2013-05-19 04:51:00,55.0,53.0,-100.00,South,174,6.0,9.0,93,0.00,,,0.02,0.000000,,2013-05-19 14:51:00,
2013-05-19 05:21:00,55.0,53.0,-100.00,SE,130,5.0,10.0,92,0.00,,,0.02,0.000000,,2013-05-19 15:21:00,
2013-05-19 05:33:00,55.0,53.0,-100.00,SE,130,5.0,10.0,92,0.00,,,0.02,0.000000,,2013-05-19 15:33:00,
2013-05-19 05:43:00,55.0,53.0,-100.00,SE,130,5.0,10.0,92,0.00,,,0.02,0.000000,,2013-05-19 15:43:00,
2013-05-19 05:53:00,55.0,53.0,-100.00,SE,130,5.0,10.0,92,0.00,,,0.02,0.000000,,2013-05-19 15:53:00,
2013-05-19 06:23:00,54.0,51.0,-100.00,SE,140,7.0,10.0,90,0.00,,,0.02,0.000000,,2013-05-19 16:23:00,
2013-05-19 06:32:00,54.0,51.0,-100.00,SE,140,7.0,10.0,90,0.00,,,0.02,0.000000,,2013-05-19 16:32:00,
2013-05-19 06:42:00,54.0,51.0,-100.00,SE,140,7.0,10.0,90,0.00,,,0.02,0.000000,,2013-05-19 16:42:00,
2013-05-19 06:52:00,54.0,51.0,-100.00,SE,140,7.0,10.0,90,0.00,,,0.02,0.000000,,2013-05-19 16:52:00,
2013-05-19 07:22:00,56.0,50.0,-100.00,SSE,158,5.0,13.0,81,0.00,,,0.02,102.000000,,2013-05-19 17:22:00,
2013-05-19 07:32:00,56.0,50.0,-100.00,SSE,158,5.0,13.0,81,0.00,,,0.02,102.000000,,2013-05-19 17:32:00,
2013-05-19 07:42:00,56.0,50.0,-100.00,SSE,158,5.0,13.0,81,0.00,,,0.02,102.000000,,2013-05-19 17:42:00,
2013-05-19 07:52:00,56.0,50.0,-100.00,SSE,158,5.0,13.0,81,0.00,,,0.02,102.000000,,2013-05-19 17:52:00,
2013-05-19 08:22:00,64.0,51.0,-100.00,SW,234,4.0,9.0,62,0.00,,,0.02,363.000000,,2013-05-19 18:22:00,
2013-05-19 08:32:00,64.0,51.0,-100.00,SW,234,4.0,9.0,62,0.00,,,0.02,363.000000,,2013-05-19 18:32:00,
2013-05-19 08:42:00,64.0,51.0,-100.00,SW,234,4.0,9.0,62,0.00,,,0.02,363.000000,,2013-05-19 18:42:00,
2013-05-19 08:52:00,64.0,51.0,-100.00,SW,234,4.0,9.0,62,0.00,,,0.02,363.000000,,2013-05-19 18:52:00,
2013-05-19 09:21:00,64.0,49.0,-100.00,WSW,244,4.0,12.0,59,0.00,,,0.02,594.000000,,2013-05-19 19:21:00,
2013-05-19 09:32:00,64.0,49.0,-100.00,WSW,244,4.0,12.0,59,0.00,,,0.02,594.000000,,2013-05-19 19:32:00,
2013-05-19 09:42:00,64.0,49.0,-100.00,WSW,244,4.0,12.0,59,0.00,,,0.02,594.000000,,2013-05-19 19:42:00,
2013-05-19 09:52:00,64.0,49.0,-100.00,WSW,244,4.0,12.0,59,0.00,,,0.02,594.000000,,2013-05-19 19:52:00,
2013-05-19 10:21:00,63.0,55.0,-100.00,NNW,337,7.0,12.0,76,0.00,,,0.02,363.000000,,2013-05-19 20:21:00,
2013-05-19 10:31:00,63.0,55.0,-100.00,NNW,337,7.0,12.0,76,0.00,,,0.02,363.000000,,2013-05-19 20:31:00,
2013-05-19 10:41:00,63.0,55.0,-100.00,NNW,337,7.0,12.0,76,0.00,,,0.02,363.000000,,2013-05-19 20:41:00,
2013-05-19 10:51:00,63.0,55.0,-100.00,NNW,337,7.0,12.0,76,0.00,,,0.02,363.000000,,2013-05-19 20:51:00,
2013-05-19 11:22:00,65.0,56.0,-100.00,NNW,346,5.0,15.0,73,0.00,,,0.02,445.000000,,2013-05-19 21:22:00,
2013-05-19 11:32:00,65.0,56.0,-100.00,NNW,346,5.0,15.0,73,0.00,,,0.02,445.000000,,2013-05-19 21:32:00,
2013-05-19 11:43:00,65.0,56.0,-100.00,NNW,346,5.0,15.0,73,0.00,,,0.02,445.000000,,2013-05-19 21:43:00,
2013-05-19 11:53:00,65.0,56.0,-100.00,NNW,346,5.0,15.0,73,0.00,,,0.02,445.000000,,2013-05-19 21:53:00,
2013-05-19 12:23:00,62.0,56.0,-100.00,NNW,330,7.0,15.0,82,0.00,,,-99.99,230.000000,,2013-05-19 22:23:00,
2013-05-19 12:33:00,62.0,56.0,-100.00,NNW,330,7.0,15.0,82,0.00,,,-99.99,230.000000,,2013-05-19 22:33:00,
2013-05-19 12:42:00,62.0,56.0,-100.00,NNW,330,7.0,15.0,82,0.00,,,-99.99,230.000000,,2013-05-19 22:42:00,
2013-05-19 12:52:00,62.0,56.0,-100.00,NNW,330,7.0,15.0,82,0.00,,,-99.99,230.000000,,2013-05-19 22:52:00,
2013-05-19 13:21:00,63.0,57.0,-100.00,NNW,345,6.0,14.0,80,0.00,,,0.02,378.000000,,2013-05-19 23:21:00,
2013-05-19 13:32:00,63.0,57.0,-100.00,NNW,345,6.0,14.0,80,0.00,,,0.02,378.000000,,2013-05-19 23:32:00,
2013-05-19 13:42:00,63.0,57.0,-100.00,NNW,345,6.0,14.0,80,0.00,,,0.02,378.000000,,2013-05-19 23:42:00,
2013-05-19 13:52:00,63.0,57.0,-100.00,NNW,345,6.0,14.0,80,0.00,,,0.02,378.000000,,2013-05-19 23:52:00,
2013-05-19 14:21:00,64.0,55.0,-100.00,NNW,331,7.0,17.0,73,0.00,,,0.02,403.000000,,2013-05-20 00:21:00,
2013-05-19 14:32:00,64.0,55.0,-100.00,NNW,331,7.0,17.0,73,0.00,,,0.02,403.000000,,2013-05-20 00:32:00,
2013-05-19 14:41:00,64.0,55.0,-100.00,NNW,331,7.0,17.0,73,0.00,,,0.02,403.000000,,2013-05-20 00:41:00,
2013-05-19 14:52:00,64.0,55.0,-100.00,NNW,331,7.0,17.0,73,0.00,,,0.02,403.000000,,2013-05-20 00:52:00,
2013-05-19 15:21:00,61.0,54.0,-100.00,North,359,7.0,19.0,79,0.00,,,0.02,343.000000,,2013-05-20 01:21:00,
2013-05-19 15:31:00,61.0,54.0,-100.00,North,359,7.0,19.0,79,0.00,,,0.02,343.000000,,2013-05-20 01:31:00,
2013-05-19 15:42:00,61.0,54.0,-100.00,North,359,7.0,19.0,79,0.00,,,0.02,343.000000,,2013-05-20 01:42:00,
2013-05-19 15:52:00,61.0,54.0,-100.00,North,359,7.0,19.0,79,0.00,,,0.02,343.000000,,2013-05-20 01:52:00,
2013-05-19 16:21:00,59.0,54.0,-100.00,North,358,6.0,13.0,83,0.00,,,0.01,163.000000,,2013-05-20 02:21:00,
2013-05-19 16:31:00,59.0,54.0,-100.00,North,358,6.0,13.0,83,0.00,,,0.01,163.000000,,2013-05-20 02:31:00,
2013-05-19 16:42:00,59.0,54.0,-100.00,North,358,6.0,13.0,83,0.00,,,0.01,163.000000,,2013-05-20 02:42:00,
2013-05-19 16:51:00,59.0,54.0,-100.00,North,358,6.0,13.0,83,0.00,,,0.01,163.000000,,2013-05-20 02:51:00,
2013-05-19 17:21:00,58.0,54.0,-100.00,North,350,6.0,15.0,88,0.00,,,0.01,80.000000,,2013-05-20 03:21:00,
2013-05-19 17:33:00,58.0,54.0,-100.00,North,350,6.0,15.0,88,0.00,,,0.01,80.000000,,2013-05-20 03:33:00,
2013-05-19 17:42:00,58.0,54.0,-100.00,North,350,6.0,15.0,88,0.00,,,0.01,80.000000,,2013-05-20 03:42:00,
2013-05-19 17:52:00,58.0,54.0,-100.00,North,350,6.0,15.0,88,0.00,,,0.01,80.000000,,2013-05-20 03:52:00,
2013-05-19 18:23:00,58.0,55.0,-100.00,North,358,5.0,10.0,90,0.00,,,0.00,39.000000,,2013-05-20 04:23:00,
2013-05-19 18:33:00,58.0,55.0,-100.00,North,358,5.0,10.0,90,0.00,,,0.00,39.000000,,2013-05-20 04:33:00,
2013-05-19 18:42:00,58.0,55.0,-100.00,North,358,5.0,10.0,90,0.00,,,0.00,39.000000,,2013-05-20 04:42:00,
2013-05-19 18:52:00,58.0,55.0,-100.00,North,358,5.0,10.0,90,0.00,,,0.00,39.000000,,2013-05-20 04:52:00,
2013-05-19 19:21:00,57.0,56.0,-100.00,NW,318,4.0,10.0,95,0.00,,,0.00,9.000000,,2013-05-20 05:21:00,
2013-05-19 19:32:00,57.0,56.0,-100.00,NW,318,4.0,10.0,95,0.00,,,0.00,9.000000,,2013-05-20 05:32:00,
2013-05-19 19:42:00,57.0,56.0,-100.00,NW,318,4.0,10.0,95,0.00,,,0.00,9.000000,,2013-05-20 05:42:00,
2013-05-19 19:51:00,57.0,56.0,-100.00,NW,318,4.0,10.0,95,0.00,,,0.00,9.000000,,2013-05-20 05:51:00,
2013-05-19 20:21:00,58.0,57.0,-100.00,West,270,2.0,5.0,97,0.00,,,0.00,0.000000,,2013-05-20 06:21:00,
2013-05-19 20:32:00,58.0,57.0,-100.00,West,270,2.0,5.0,97,0.00,,,0.00,0.000000,,2013-05-20 06:32:00,
2013-05-19 20:41:00,58.0,57.0,-100.00,West,270,2.0,5.0,97,0.00,,,0.00,0.000000,,2013-05-20 06:41:00,
2013-05-19 20:51:00,58.0,57.0,-100.00,West,270,2.0,5.0,97,0.00,,,0.00,0.000000,,2013-05-20 06:51:00,
2013-05-19 21:21:00,55.0,54.0,-100.00,SW,224,5.0,10.0,97,0.00,,,0.00,0.000000,,2013-05-20 07:21:00,
2013-05-19 21:32:00,55.0,54.0,-100.00,SW,224,5.0,10.0,97,0.00,,,0.00,0.000000,,2013-05-20 07:32:00,
2013-05-19 21:41:00,55.0,54.0,-100.00,SW,224,5.0,10.0,97,0.00,,,0.00,0.000000,,2013-05-20 07:41:00,
2013-05-19 21:52:00,55.0,54.0,-100.00,SW,224,5.0,10.0,97,0.00,,,0.00,0.000000,,2013-05-20 07:52:00,
2013-05-19 22:21:00,56.0,55.0,-100.00,SW,220,7.0,11.0,97,0.00,,,0.00,0.000000,,2013-05-20 08:21:00,
2013-05-19 22:31:00,56.0,55.0,-100.00,SW,220,7.0,11.0,97,0.00,,,0.00,0.000000,,2013-05-20 08:31:00,
2013-05-19 22:41:00,56.0,55.0,-100.00,SW,220,7.0,11.0,97,0.00,,,0.00,0.000000,,2013-05-20 08:41:00,
2013-05-19 22:51:00,56.0,55.0,-100.00,SW,220,7.0,11.0,97,0.00,,,0.00,0.000000,,2013-05-20 08:51:00,
2013-05-19 23:21:00,54.0,53.0,-100.00,SSW,207,6.0,10.0,98,0.00,,,0.00,0.000000,,2013-05-20 09:21:00,
2013-05-19 23:32:00,54.0,53.0,-100.00,SSW,207,6.0,10.0,98,0.00,,,0.00,0.000000,,2013-05-20 09:32:00,
2013-05-19 23:43:00,54.0,53.0,-100.00,SSW,207,6.0,10.0,98,0.00,,,0.00,0.000000,,2013-05-20 09:43:00,
2013-05-19 23:52:00,54.0,53.0,-100.00,SSW,207,6.0,10.0,98,0.00,,,0.00,0.000000,,2013-05-20 09:52:00,